Kezdőlap
METAR-TAF:

METAR-TAF

Repülőterek :

Csebokszári, Oroszország

földrajzi szélesség: 56-05-24N, földrajzi hosszúság: 047-20-50E, magasság: 171 m

Jelenlegi meteorológiai megfigyelések

A jelentés 31 perccel ezelõtt készült, 13:30 UTC
Északnyugati szél 6 kt
Hőmérséklet 7°C
Páratartalom 87%
Légköri nyomás 1014 hPa
Látótávolság 10 km, vagy több
Szórványos felhőzet 3000 lábon, Cumulonimbus.

METAR: UWKS 151330Z 32003MPS 9999 SCT030CB 07/05 Q1014 R06/290255 NOSIG RMK QFE745

Idő: 17:01 (14:01 UTC)


TAF: hiányzik

Meteorológiai megfigyelések és előrejelzések több, mint 4000 repülőtéren (METAR és TAF jelentéseket).

A térképen piros és sárga pontok jelzik az elérhető meteorológiai állomásokat.

Mozgassa az egeret a pont fölött, hogy megjelenjen az állomás neve.

Azután kattintson az időjárási megfigyelések és előrejelzések megtekintéséhez.

A térkép megváltoztatása: kattintson a fekete keresztel jelölt zöld gombra ráközelítéshez, a vonallal jelölt zöld gombra távolításhoz, vagy a zöld nyilakra a szomszédos térképek eléréséhez.


METAR-TAF: